createdAt,value
2022-10-09T00:01:16.800Z,100056.63
2022-10-09T00:03:46.456Z,100098.69
2022-10-09T00:06:16.965Z,100081.69
2022-10-09T00:08:43.976Z,100080.97
2022-10-09T00:11:14.309Z,100080.97
2022-10-09T00:14:00.856Z,100072.22
2022-10-09T00:16:29.043Z,100085.75
2022-10-09T00:18:57.104Z,100109.78
2022-10-09T00:21:29.688Z,100079.28
2022-10-09T00:23:58.355Z,100050.28
2022-10-09T00:26:25.698Z,100072.50
2022-10-09T00:28:53.503Z,100091.53
2022-10-09T00:31:21.143Z,100072.78
2022-10-09T00:33:48.052Z,100077.31
2022-10-09T00:36:18.471Z,100061.00
2022-10-09T00:38:45.323Z,100058.50
2022-10-09T00:41:19.275Z,100064.56
2022-10-09T00:44:01.094Z,100099.38
2022-10-09T00:46:41.270Z,100066.69
2022-10-09T00:49:08.108Z,100089.81
2022-10-09T00:51:35.236Z,100062.72
2022-10-09T00:54:05.504Z,100073.56
2022-10-09T00:56:33.856Z,100084.84
2022-10-09T00:59:02.666Z,100084.72
2022-10-09T01:01:29.579Z,100092.78
2022-10-09T01:03:56.475Z,100083.00
2022-10-09T01:06:29.331Z,100079.06
2022-10-09T01:09:07.290Z,100088.91
2022-10-09T01:11:54.984Z,100073.81
2022-10-09T01:14:30.298Z,100083.25
2022-10-09T01:17:05.825Z,100062.44
2022-10-09T01:19:50.149Z,100077.09
2022-10-09T01:22:46.092Z,100073.63
2022-10-09T01:25:29.063Z,100070.25
2022-10-09T01:27:57.057Z,100064.50
2022-10-09T01:30:32.836Z,100092.66
2022-10-09T01:32:59.862Z,100093.84
2022-10-09T01:35:27.059Z,100083.91
2022-10-09T01:37:56.625Z,100071.88
2022-10-09T01:40:26.457Z,100080.88
2022-10-09T01:42:53.743Z,100101.78
2022-10-09T01:45:20.812Z,100064.13
2022-10-09T01:47:47.675Z,100063.38
2022-10-09T01:50:29.399Z,100088.44
2022-10-09T01:53:11.008Z,100071.06
2022-10-09T01:55:49.888Z,100084.09
2022-10-09T01:58:22.689Z,100078.75
2022-10-09T02:01:17.102Z,100087.53
2022-10-09T02:03:48.930Z,100085.63
2022-10-09T02:06:17.980Z,100095.00
2022-10-09T02:08:46.908Z,100057.38
2022-10-09T02:11:15.054Z,100067.13
2022-10-09T02:13:43.890Z,100061.34
2022-10-09T02:16:37.734Z,100085.19
2022-10-09T02:19:12.391Z,100075.22
2022-10-09T02:21:45.088Z,100100.75
2022-10-09T02:24:19.010Z,100070.72
2022-10-09T02:26:46.508Z,100076.47
2022-10-09T02:29:14.886Z,100071.56
2022-10-09T02:31:43.434Z,100066.09
2022-10-09T02:34:16.063Z,100081.53
2022-10-09T02:36:43.156Z,100065.50
2022-10-09T02:39:10.329Z,100072.31
2022-10-09T02:41:37.485Z,100061.88
2022-10-09T02:44:05.695Z,100074.50
2022-10-09T02:46:33.923Z,100073.34
2022-10-09T02:49:00.933Z,100065.91
2022-10-09T02:51:27.814Z,100059.47
2022-10-09T02:53:56.021Z,100074.63
2022-10-09T02:56:24.031Z,100060.34
2022-10-09T02:58:50.872Z,100054.72
2022-10-09T03:01:18.620Z,100080.25
2022-10-09T03:03:46.349Z,100050.53
2022-10-09T03:06:18.885Z,100057.97
2022-10-09T03:08:47.844Z,100047.38
2022-10-09T03:11:16.406Z,100057.97
2022-10-09T03:13:43.552Z,100046.16
2022-10-09T03:16:17.027Z,100071.63
2022-10-09T03:18:44.425Z,100067.84
2022-10-09T03:21:23.893Z,100052.66
2022-10-09T03:23:51.246Z,100061.03
2022-10-09T03:26:21.547Z,100055.50
2022-10-09T03:28:50.422Z,100061.78
2022-10-09T03:31:46.575Z,100054.03
2022-10-09T03:34:11.213Z,100043.09
2022-10-09T03:36:38.294Z,100043.91
2022-10-09T03:39:05.118Z,100046.53
2022-10-09T03:41:31.981Z,100037.03
2022-10-09T03:43:58.794Z,100040.53
2022-10-09T03:46:25.884Z,100046.03
2022-10-09T03:48:52.687Z,100052.31
2022-10-09T03:51:19.617Z,100055.84
2022-10-09T03:53:46.403Z,100049.03
2022-10-09T03:56:13.310Z,100053.31
2022-10-09T03:58:40.152Z,100066.84
2022-10-09T04:01:07.094Z,100040.84
2022-10-09T04:03:33.935Z,100049.56
2022-10-09T04:06:00.884Z,100052.34
2022-10-09T04:08:27.671Z,100053.25
2022-10-09T04:10:58.760Z,100046.50
2022-10-09T04:13:25.810Z,100045.91
2022-10-09T04:15:53.636Z,100035.06
2022-10-09T04:18:20.826Z,100026.88
2022-10-09T04:20:52.354Z,100051.41
2022-10-09T04:23:20.661Z,100038.97
2022-10-09T04:25:47.440Z,100030.91
2022-10-09T04:28:14.567Z,100050.88
2022-10-09T04:30:41.449Z,100018.25
2022-10-09T04:33:12.743Z,100029.25
2022-10-09T04:35:47.045Z,100035.69
2022-10-09T04:38:13.869Z,100007.13
2022-10-09T04:40:41.264Z,100029.88
2022-10-09T04:43:08.316Z,100029.59
2022-10-09T04:45:39.663Z,100030.78
2022-10-09T04:48:06.497Z,100015.78
2022-10-09T04:50:33.485Z,100024.88
2022-10-09T04:53:00.393Z,100019.63
2022-10-09T04:55:27.231Z,100006.56
2022-10-09T04:57:54.136Z,100032.97
2022-10-09T05:00:20.917Z,100027.34
2022-10-09T05:02:48.201Z,100028.84
2022-10-09T05:05:15.332Z,100071.13
2022-10-09T05:07:44.911Z,100016.47
2022-10-09T05:10:11.763Z,100004.78
2022-10-09T05:12:38.772Z,100001.78
2022-10-09T05:15:06.288Z,100023.66
2022-10-09T05:17:34.454Z,100027.81
2022-10-09T05:20:01.351Z,100026.69
2022-10-09T05:22:30.096Z,100023.59
2022-10-09T05:24:57.033Z,100034.16
2022-10-09T05:27:23.920Z,100023.97
2022-10-09T05:29:50.825Z,100010.69
2022-10-09T05:32:17.708Z,100021.63
2022-10-09T05:34:44.523Z,100024.91
2022-10-09T05:37:11.434Z,100024.16
2022-10-09T05:39:38.271Z,100027.53
2022-10-09T05:42:05.550Z,100013.38
2022-10-09T05:44:32.348Z,100014.88
2022-10-09T05:46:59.207Z,100031.38
2022-10-09T05:49:26.021Z,100009.34
2022-10-09T05:51:53.605Z,99987.38
2022-10-09T05:54:20.510Z,100014.91
2022-10-09T05:56:47.473Z,100001.53
2022-10-09T05:59:18.943Z,100017.34
2022-10-09T06:01:49.099Z,100004.38
2022-10-09T06:04:18.438Z,99977.88
2022-10-09T06:06:46.247Z,100008.78
2022-10-09T06:09:13.746Z,100013.97
2022-10-09T06:11:40.853Z,100010.00
2022-10-09T06:14:10.396Z,99994.06
2022-10-09T06:16:40.207Z,100004.94
2022-10-09T06:19:08.082Z,100003.66
2022-10-09T06:21:36.660Z,99981.28
2022-10-09T06:24:08.396Z,100002.06
2022-10-09T06:26:35.431Z,99981.84
2022-10-09T06:29:03.563Z,99985.41
2022-10-09T06:31:32.772Z,99957.75
2022-10-09T06:34:03.094Z,99989.63
2022-10-09T06:36:32.443Z,99972.03
2022-10-09T06:39:01.041Z,99986.31
2022-10-09T06:41:29.301Z,99973.72
2022-10-09T06:44:16.535Z,99950.72
2022-10-09T06:46:45.250Z,99942.75
2022-10-09T06:49:12.422Z,99982.69
2022-10-09T06:51:39.640Z,99964.88
2022-10-09T06:54:12.407Z,99974.00
2022-10-09T06:56:39.507Z,99965.41
2022-10-09T06:59:07.397Z,99961.19
2022-10-09T07:01:34.939Z,99958.25
2022-10-09T07:04:04.838Z,99969.00
2022-10-09T07:06:32.568Z,99958.41
2022-10-09T07:09:05.483Z,99961.06
2022-10-09T07:11:35.552Z,99971.16
2022-10-09T07:14:08.010Z,99959.78
2022-10-09T07:16:57.472Z,99942.59
2022-10-09T07:19:24.350Z,99970.34
2022-10-09T07:21:51.150Z,99940.53
2022-10-09T07:24:18.768Z,99915.91
2022-10-09T07:26:46.943Z,99946.94
2022-10-09T07:29:15.458Z,99961.88
2022-10-09T07:31:42.237Z,99928.19
2022-10-09T07:34:09.230Z,99950.03
2022-10-09T07:36:36.445Z,99937.72
2022-10-09T07:39:04.825Z,99942.72
2022-10-09T07:42:03.920Z,99941.19
2022-10-09T07:44:30.966Z,99933.66
2022-10-09T07:46:57.824Z,99921.47
2022-10-09T07:49:24.669Z,99937.81
2022-10-09T07:51:51.516Z,99923.16
2022-10-09T07:54:18.418Z,99914.53
2022-10-09T07:56:45.339Z,99935.31
2022-10-09T07:59:14.378Z,99912.00
2022-10-09T08:01:52.804Z,99910.69
2022-10-09T08:04:19.835Z,99920.88
2022-10-09T08:06:46.622Z,99926.72
2022-10-09T08:09:13.462Z,99910.94
2022-10-09T08:11:40.275Z,99916.38
2022-10-09T08:14:07.822Z,99894.09
2022-10-09T08:16:34.649Z,99903.75
2022-10-09T08:19:01.978Z,99912.97
2022-10-09T08:21:29.466Z,99901.22
2022-10-09T08:23:58.095Z,99884.22
2022-10-09T08:26:26.867Z,99904.00
2022-10-09T08:28:57.206Z,99890.66
2022-10-09T08:31:25.220Z,99892.69
2022-10-09T08:33:53.346Z,99882.88
2022-10-09T08:36:20.433Z,99878.91
2022-10-09T08:38:48.295Z,99893.69
2022-10-09T08:41:33.382Z,99866.75
2022-10-09T08:44:38.577Z,99887.31
2022-10-09T08:47:17.195Z,99878.31
2022-10-09T08:50:22.678Z,99852.16
2022-10-09T08:52:56.993Z,99867.72
2022-10-09T08:55:29.736Z,99884.59
2022-10-09T08:58:00.981Z,99858.84
2022-10-09T09:00:44.848Z,99867.72
2022-10-09T09:03:33.343Z,99836.75
2022-10-09T09:06:28.139Z,99843.50
2022-10-09T09:09:08.615Z,99841.94
2022-10-09T09:12:09.901Z,99838.91
2022-10-09T09:14:51.159Z,99856.31
2022-10-09T09:17:34.525Z,99838.16
2022-10-09T09:20:22.656Z,99820.03
2022-10-09T09:22:50.767Z,99844.88
2022-10-09T09:25:25.071Z,99843.59
2022-10-09T09:28:33.183Z,99846.28
2022-10-09T09:31:07.222Z,99815.94
2022-10-09T09:33:44.754Z,99826.19
2022-10-09T09:36:24.044Z,99834.75
2022-10-09T09:39:36.232Z,99815.75
2022-10-09T09:41:41.409Z,99819.38
2022-10-09T09:44:13.678Z,99819.78
2022-10-09T09:46:43.654Z,99817.63
2022-10-09T09:49:43.873Z,99818.16
2022-10-09T09:52:10.932Z,99819.78
2022-10-09T09:54:37.972Z,99812.44
2022-10-09T09:57:15.802Z,99807.66
2022-10-09T09:59:45.410Z,99802.09
2022-10-09T10:02:23.979Z,99797.81
2022-10-09T10:04:54.127Z,99814.47
2022-10-09T10:07:47.318Z,99798.03
2022-10-09T10:10:26.628Z,99816.19
2022-10-09T10:12:54.039Z,99807.75
2022-10-09T10:15:29.219Z,99807.28
2022-10-09T10:18:12.399Z,99804.59
2022-10-09T10:20:48.226Z,99804.59
2022-10-09T10:23:25.845Z,99780.00
2022-10-09T10:25:57.715Z,99806.88
2022-10-09T10:28:51.210Z,99819.78
2022-10-09T10:31:39.785Z,99789.50
2022-10-09T10:34:25.575Z,99787.53
2022-10-09T10:37:03.719Z,99776.66
2022-10-09T10:39:49.981Z,99766.22
2022-10-09T10:42:26.012Z,99764.09
2022-10-09T10:45:00.769Z,99762.47
2022-10-09T10:47:34.509Z,99776.47
2022-10-09T10:50:01.828Z,99744.34
2022-10-09T10:53:06.094Z,99751.13
2022-10-09T10:55:54.699Z,99747.63
2022-10-09T10:58:43.014Z,99754.34
2022-10-09T11:01:30.784Z,99752.66
2022-10-09T11:04:21.853Z,99742.22
2022-10-09T11:07:18.478Z,99749.31
2022-10-09T11:09:59.431Z,99732.75
2022-10-09T11:12:50.100Z,99717.03
2022-10-09T11:15:54.455Z,99725.72
2022-10-09T11:18:42.292Z,99713.31
2022-10-09T11:21:37.484Z,99720.28
2022-10-09T11:24:16.116Z,99706.63
2022-10-09T11:27:03.572Z,99730.19
2022-10-09T11:29:43.710Z,99716.47
2022-10-09T11:32:22.316Z,99717.47
2022-10-09T11:35:07.249Z,99717.97
2022-10-09T11:37:37.375Z,99693.00
2022-10-09T11:40:16.404Z,99688.28
2022-10-09T11:42:49.760Z,99697.41
2022-10-09T11:45:19.488Z,99687.19
2022-10-09T11:48:15.288Z,99696.56
2022-10-09T11:51:20.281Z,99691.25
2022-10-09T11:53:47.796Z,99687.50
2022-10-09T11:56:24.149Z,99671.44
2022-10-09T11:59:20.961Z,99655.53
2022-10-09T12:01:47.887Z,99665.47
2022-10-09T12:04:14.632Z,99679.63
2022-10-09T12:07:03.244Z,99671.00
2022-10-09T12:09:35.959Z,99658.28
2022-10-09T12:12:28.833Z,99668.19
2022-10-09T12:14:55.811Z,99656.03
2022-10-09T12:17:22.544Z,99676.25
2022-10-09T12:19:58.704Z,99661.88
2022-10-09T12:22:35.642Z,99665.78
2022-10-09T12:25:25.984Z,99632.19
2022-10-09T12:27:54.707Z,99636.16
2022-10-09T12:30:25.291Z,99649.19
2022-10-09T12:33:31.217Z,99663.13
2022-10-09T12:36:04.739Z,99625.34
2022-10-09T12:38:32.893Z,99662.22
2022-10-09T12:41:11.938Z,99647.44
2022-10-09T12:43:45.618Z,99630.69
2022-10-09T12:46:12.953Z,99625.78
2022-10-09T12:48:43.175Z,99636.78
2022-10-09T12:51:36.354Z,99657.28
2022-10-09T12:54:26.856Z,99632.72
2022-10-09T12:56:56.422Z,99637.78
2022-10-09T13:00:00.074Z,99650.06
2022-10-09T13:02:27.230Z,99641.16
2022-10-09T13:05:00.119Z,99620.63
2022-10-09T13:07:29.762Z,99616.44
2022-10-09T13:10:00.139Z,99574.13
2022-10-09T13:12:40.964Z,99596.47
2022-10-09T13:15:34.595Z,99616.22
2022-10-09T13:18:12.635Z,99605.97
2022-10-09T13:20:39.703Z,99611.94
2022-10-09T13:23:06.635Z,99578.91
2022-10-09T13:25:40.499Z,99618.56
2022-10-09T13:28:07.440Z,99603.59
2022-10-09T13:30:34.328Z,99592.34
2022-10-09T13:33:01.229Z,99583.19
2022-10-09T13:35:28.159Z,99608.72
2022-10-09T13:37:55.066Z,99602.13
2022-10-09T13:40:22.038Z,99596.84
2022-10-09T13:43:01.141Z,99584.72
2022-10-09T13:45:28.746Z,99601.16
2022-10-09T13:47:55.555Z,99602.22
2022-10-09T13:50:22.443Z,99576.84
2022-10-09T13:52:49.325Z,99583.88
2022-10-09T13:55:28.614Z,99588.47
2022-10-09T13:57:55.551Z,99587.94
2022-10-09T14:00:22.785Z,99594.63
2022-10-09T14:02:49.861Z,99595.81
2022-10-09T14:05:16.745Z,99587.38
2022-10-09T14:07:43.630Z,99587.38
2022-10-09T14:10:10.967Z,99595.28
2022-10-09T14:12:38.275Z,99559.91
2022-10-09T14:15:06.006Z,99586.13
2022-10-09T14:17:54.993Z,99572.16
2022-10-09T14:20:22.244Z,99588.31
2022-10-09T14:22:49.204Z,99560.97
2022-10-09T14:25:16.704Z,99586.59
2022-10-09T14:27:44.167Z,99579.47
2022-10-09T14:30:11.730Z,99564.66
2022-10-09T14:32:38.560Z,99571.72
2022-10-09T14:35:05.776Z,99578.22
2022-10-09T14:37:42.208Z,99585.16
2022-10-09T14:40:11.030Z,99578.72
2022-10-09T14:42:39.301Z,99566.81
2022-10-09T14:45:32.321Z,99579.25
2022-10-09T14:47:59.276Z,99578.34
2022-10-09T14:50:26.181Z,99597.38
2022-10-09T14:52:53.078Z,99580.78
2022-10-09T14:55:19.925Z,99578.97
2022-10-09T14:57:46.948Z,99596.09
2022-10-09T15:00:14.269Z,99584.78
2022-10-09T15:02:44.083Z,99603.41
2022-10-09T15:05:10.889Z,99587.97
2022-10-09T15:07:37.735Z,99598.97
2022-10-09T15:10:36.807Z,99576.94
2022-10-09T15:13:04.070Z,99574.88
2022-10-09T15:15:32.742Z,99578.19
2022-10-09T15:17:59.808Z,99601.28
2022-10-09T15:20:26.985Z,99575.38
2022-10-09T15:22:53.855Z,99576.66
2022-10-09T15:25:20.639Z,99567.81
2022-10-09T15:27:51.324Z,99577.47
2022-10-09T15:30:21.253Z,99602.28
2022-10-09T15:32:48.035Z,99565.41
2022-10-09T15:35:14.983Z,99580.44
2022-10-09T15:37:41.808Z,99565.31
2022-10-09T15:40:09.296Z,99588.19
2022-10-09T15:42:36.109Z,99576.13
2022-10-09T15:45:04.063Z,99565.31
2022-10-09T15:47:49.954Z,99581.53
2022-10-09T15:50:17.654Z,99583.44
2022-10-09T15:52:44.464Z,99569.91
2022-10-09T15:55:11.355Z,99569.03
2022-10-09T15:57:38.122Z,99560.47
2022-10-09T16:00:05.698Z,99582.88
2022-10-09T16:02:32.627Z,99558.19
2022-10-09T16:04:59.492Z,99582.44
2022-10-09T16:07:26.283Z,99573.00
2022-10-09T16:09:53.182Z,99563.59
2022-10-09T16:12:19.927Z,99568.94
2022-10-09T16:14:46.766Z,99564.50
2022-10-09T16:17:13.771Z,99548.63
2022-10-09T16:19:40.653Z,99551.78
2022-10-09T16:22:07.623Z,99528.56
2022-10-09T16:24:34.544Z,99555.38
2022-10-09T16:27:01.395Z,99569.75
2022-10-09T16:29:29.992Z,99563.34
2022-10-09T16:31:56.816Z,99545.91
2022-10-09T16:34:23.657Z,99573.03
2022-10-09T16:36:50.579Z,99558.34
2022-10-09T16:39:17.601Z,99562.34
2022-10-09T16:41:44.447Z,99573.03
2022-10-09T16:44:14.353Z,99567.13
2022-10-09T16:46:41.151Z,99556.94
2022-10-09T16:49:15.512Z,99557.66
2022-10-09T16:51:42.982Z,99565.44
2022-10-09T16:54:10.510Z,99558.59
2022-10-09T16:56:39.861Z,99558.63
2022-10-09T16:59:12.295Z,99563.78
2022-10-09T17:01:40.092Z,99553.16
2022-10-09T17:04:06.905Z,99542.16
2022-10-09T17:06:33.866Z,99570.25
2022-10-09T17:09:01.517Z,99572.03
2022-10-09T17:11:30.089Z,99553.94
2022-10-09T17:13:57.465Z,99556.94
2022-10-09T17:16:28.723Z,99562.69
2022-10-09T17:18:56.096Z,99578.72
2022-10-09T17:21:25.800Z,99563.19
2022-10-09T17:23:56.907Z,99573.16
2022-10-09T17:26:25.556Z,99562.31
2022-10-09T17:28:53.242Z,99558.00
2022-10-09T17:31:22.905Z,99565.06
2022-10-09T17:33:55.018Z,99570.97
2022-10-09T17:36:24.293Z,99548.34
2022-10-09T17:38:51.729Z,99543.66
2022-10-09T17:41:21.793Z,99567.25
2022-10-09T17:44:10.763Z,99539.28
2022-10-09T17:46:37.681Z,99554.78
2022-10-09T17:49:04.489Z,99552.56
2022-10-09T17:51:34.435Z,99563.84
2022-10-09T17:54:05.980Z,99574.28
2022-10-09T17:56:36.411Z,99544.53
2022-10-09T17:59:03.975Z,99562.13
2022-10-09T18:01:31.343Z,99566.53
2022-10-09T18:03:58.840Z,99558.13
2022-10-09T18:06:26.607Z,99551.31
2022-10-09T18:08:55.311Z,99585.56
2022-10-09T18:11:23.606Z,99559.75
2022-10-09T18:13:50.940Z,99555.25
2022-10-09T18:16:21.380Z,99553.75
2022-10-09T18:18:48.664Z,99558.41
2022-10-09T18:21:16.824Z,99569.94
2022-10-09T18:23:45.544Z,99581.47
2022-10-09T18:26:15.433Z,99575.09
2022-10-09T18:28:44.752Z,99565.03
2022-10-09T18:31:21.251Z,99573.47
2022-10-09T18:34:23.959Z,99563.56
2022-10-09T18:36:50.975Z,99559.19
2022-10-09T18:39:18.817Z,99548.34
2022-10-09T18:41:45.653Z,99572.75
2022-10-09T18:44:16.492Z,99547.38
2022-10-09T18:46:51.425Z,99527.69
2022-10-09T18:49:21.202Z,99563.09
2022-10-09T18:51:49.024Z,99539.31
2022-10-09T18:54:19.236Z,99552.97
2022-10-09T18:56:46.937Z,99556.63
2022-10-09T18:59:44.505Z,99582.84
2022-10-09T19:02:11.367Z,99551.91
2022-10-09T19:05:01.090Z,99555.16
2022-10-09T19:07:28.033Z,99555.38
2022-10-09T19:09:57.375Z,99561.00
2022-10-09T19:12:25.065Z,99543.69
2022-10-09T19:14:52.299Z,99555.38
2022-10-09T19:17:19.361Z,99531.72
2022-10-09T19:19:46.143Z,99548.88
2022-10-09T19:22:16.443Z,99552.78
2022-10-09T19:24:44.728Z,99544.38
2022-10-09T19:27:11.748Z,99540.69
2022-10-09T19:29:38.891Z,99547.94
2022-10-09T19:32:34.829Z,99548.88
2022-10-09T19:35:01.803Z,99550.50
2022-10-09T19:37:29.861Z,99547.91
2022-10-09T19:39:57.089Z,99552.13
2022-10-09T19:42:23.961Z,99545.81
2022-10-09T19:44:50.876Z,99538.84
2022-10-09T19:47:17.672Z,99556.44
2022-10-09T19:50:03.255Z,99559.75
2022-10-09T19:52:30.247Z,99543.75
2022-10-09T19:54:57.197Z,99542.59
2022-10-09T19:57:24.084Z,99579.50
2022-10-09T19:59:50.892Z,99538.44
2022-10-09T20:02:17.864Z,99525.59
2022-10-09T20:04:49.184Z,99531.81
2022-10-09T20:07:16.187Z,99536.59
2022-10-09T20:09:43.285Z,99526.47
2022-10-09T20:12:10.235Z,99514.00
2022-10-09T20:14:37.142Z,99511.38
2022-10-09T20:17:04.076Z,99502.19
2022-10-09T20:19:30.893Z,99535.44
2022-10-09T20:21:58.007Z,99519.25
2022-10-09T20:24:24.895Z,99513.91
2022-10-09T20:26:51.739Z,99499.56
2022-10-09T20:29:18.805Z,99531.75
2022-10-09T20:31:45.725Z,99514.28
2022-10-09T20:34:12.542Z,99509.50
2022-10-09T20:36:39.480Z,99515.50
2022-10-09T20:39:15.931Z,99508.25
2022-10-09T20:41:43.329Z,99511.03
2022-10-09T20:44:11.571Z,99502.34
2022-10-09T20:46:39.704Z,99487.28
2022-10-09T20:49:10.648Z,99478.09
2022-10-09T20:51:38.753Z,99490.16
2022-10-09T20:54:07.092Z,99478.50
2022-10-09T20:56:34.498Z,99490.34
2022-10-09T20:59:01.925Z,99478.56
2022-10-09T21:01:29.221Z,99445.44
2022-10-09T21:03:57.790Z,99450.81
2022-10-09T21:06:25.180Z,99476.69
2022-10-09T21:08:52.032Z,99450.69
2022-10-09T21:11:19.471Z,99477.53
2022-10-09T21:13:46.820Z,99441.94
2022-10-09T21:16:16.682Z,99454.34
2022-10-09T21:18:43.600Z,99442.25
2022-10-09T21:21:19.499Z,99467.00
2022-10-09T21:23:51.011Z,99460.69
2022-10-09T21:26:19.849Z,99442.72
2022-10-09T21:28:47.156Z,99472.22
2022-10-09T21:31:23.023Z,99463.81
2022-10-09T21:33:52.107Z,99471.06
2022-10-09T21:36:30.992Z,99466.09
2022-10-09T21:38:59.159Z,99470.25
2022-10-09T21:41:27.661Z,99457.34
2022-10-09T21:43:54.931Z,99430.13
2022-10-09T21:46:21.872Z,99455.50
2022-10-09T21:48:48.817Z,99468.75
2022-10-09T21:51:15.707Z,99453.09
2022-10-09T21:53:43.276Z,99452.53
2022-10-09T21:56:10.532Z,99445.44
2022-10-09T21:58:38.820Z,99462.06
2022-10-09T22:01:06.995Z,99444.34
2022-10-09T22:03:36.351Z,99428.56
2022-10-09T22:06:09.293Z,99433.81
2022-10-09T22:08:36.328Z,99430.09
2022-10-09T22:11:07.937Z,99435.66
2022-10-09T22:13:34.967Z,99437.97
2022-10-09T22:16:06.494Z,99449.09
2022-10-09T22:18:34.046Z,99446.25
2022-10-09T22:21:07.268Z,99433.72
2022-10-09T22:23:34.747Z,99438.31
2022-10-09T22:26:05.938Z,99419.72
2022-10-09T22:28:33.376Z,99436.25
2022-10-09T22:31:23.444Z,99436.44
2022-10-09T22:33:55.745Z,99444.44
2022-10-09T22:36:24.093Z,99423.38
2022-10-09T22:38:54.500Z,99434.72
2022-10-09T22:41:22.704Z,99419.47
2022-10-09T22:43:51.731Z,99427.41
2022-10-09T22:46:31.330Z,99429.78
2022-10-09T22:48:58.583Z,99429.00
2022-10-09T22:51:27.753Z,99426.50
2022-10-09T22:53:56.047Z,99427.19
2022-10-09T22:56:29.390Z,99406.47
2022-10-09T22:58:56.575Z,99411.19
2022-10-09T23:01:29.091Z,99411.53
2022-10-09T23:04:00.482Z,99428.56
2022-10-09T23:06:27.544Z,99398.53
2022-10-09T23:08:54.436Z,99411.50
2022-10-09T23:11:22.478Z,99408.19
2022-10-09T23:13:57.064Z,99424.41
2022-10-09T23:16:25.235Z,99417.97
2022-10-09T23:18:52.029Z,99409.91
2022-10-09T23:21:21.706Z,99414.78
2022-10-09T23:23:50.611Z,99413.25
2022-10-09T23:26:30.356Z,99408.06
2022-10-09T23:29:00.617Z,99397.94
2022-10-09T23:31:28.530Z,99399.00
2022-10-09T23:33:55.989Z,99407.69
2022-10-09T23:36:24.772Z,99396.78
2022-10-09T23:38:51.761Z,99384.31
2022-10-09T23:41:21.705Z,99393.94
2022-10-09T23:43:52.989Z,99408.22
2022-10-09T23:46:22.773Z,99383.34
2022-10-09T23:48:51.179Z,99380.56
2022-10-09T23:51:19.864Z,99376.09
2022-10-09T23:53:47.367Z,99383.69
2022-10-09T23:56:26.707Z,99373.91
2022-10-09T23:58:55.051Z,99371.66
